createdAt,value
2018-01-27T00:02:21.277Z,79.53
2018-01-27T00:04:49.558Z,64.43
2018-01-27T00:07:17.866Z,71.50
2018-01-27T00:09:46.152Z,65.73
2018-01-27T00:12:14.399Z,69.10
2018-01-27T00:14:42.653Z,55.30
2018-01-27T00:17:10.913Z,53.40
2018-01-27T00:19:39.913Z,56.33
2018-01-27T00:22:08.994Z,49.63
2018-01-27T00:24:37.251Z,57.60
2018-01-27T00:27:05.516Z,56.53
2018-01-27T00:29:33.780Z,67.23
2018-01-27T00:32:02.038Z,61.13
2018-01-27T00:34:31.079Z,53.33
2018-01-27T00:37:00.855Z,63.87
2018-01-27T00:39:29.119Z,69.10
2018-01-27T00:41:57.345Z,55.53
2018-01-27T00:44:25.627Z,57.63
2018-01-27T00:46:53.908Z,61.10
2018-01-27T00:49:22.153Z,73.07
2018-01-27T00:51:50.443Z,64.53
2018-01-27T00:54:18.704Z,65.37
2018-01-27T00:56:46.957Z,72.07
2018-01-27T00:59:15.235Z,65.13
2018-01-27T01:01:44.225Z,61.73
2018-01-27T01:04:13.261Z,74.53
2018-01-27T01:06:41.549Z,67.20
2018-01-27T01:09:10.534Z,77.67
2018-01-27T01:11:38.801Z,78.17
2018-01-27T01:14:07.053Z,85.17
2018-01-27T01:16:35.326Z,89.83
2018-01-27T01:19:04.418Z,124.00
2018-01-27T01:21:33.454Z,88.00
2018-01-27T01:24:01.701Z,74.57
2018-01-27T01:26:29.967Z,62.37
2018-01-27T01:28:58.206Z,69.47
2018-01-27T01:31:26.448Z,70.50
2018-01-27T01:33:54.719Z,68.50
2018-01-27T01:36:22.958Z,57.73
2018-01-27T01:38:52.031Z,70.43
2018-01-27T01:41:20.320Z,60.07
2018-01-27T01:43:55.712Z,70.60
2018-01-27T01:46:24.005Z,68.97
2018-01-27T01:48:52.235Z,58.67
2018-01-27T01:51:20.533Z,64.70
2018-01-27T01:53:48.816Z,85.43
2018-01-27T01:56:17.062Z,60.43
2018-01-27T01:58:45.319Z,82.77
2018-01-27T02:01:13.555Z,76.30
2018-01-27T02:03:41.823Z,79.33
2018-01-27T02:06:10.074Z,73.03
2018-01-27T02:08:38.335Z,99.60
2018-01-27T02:11:06.612Z,65.90
2018-01-27T02:13:34.856Z,75.63
2018-01-27T02:16:03.131Z,68.67
2018-01-27T02:18:31.389Z,73.47
2018-01-27T02:20:59.629Z,64.30
2018-01-27T02:23:28.687Z,70.03
2018-01-27T02:25:56.950Z,73.80
2018-01-27T02:28:25.209Z,78.37
2018-01-27T02:30:54.202Z,80.80
2018-01-27T02:33:23.234Z,70.67
2018-01-27T02:35:51.496Z,71.50
2018-01-27T02:38:19.767Z,87.20
2018-01-27T02:40:48.043Z,80.73
2018-01-27T02:43:16.297Z,86.27
2018-01-27T02:45:45.333Z,88.27
2018-01-27T02:48:13.576Z,63.73
2018-01-27T02:50:42.650Z,70.30
2018-01-27T02:53:10.856Z,63.80
2018-01-27T02:55:39.104Z,71.57
2018-01-27T02:58:07.341Z,75.13
2018-01-27T03:00:37.115Z,73.10
2018-01-27T03:03:05.413Z,75.70
2018-01-27T03:05:33.673Z,74.40
2018-01-27T03:08:02.689Z,66.87
2018-01-27T03:10:30.949Z,86.90
2018-01-27T03:12:59.220Z,70.00
2018-01-27T03:15:28.213Z,72.47
2018-01-27T03:17:56.469Z,82.17
2018-01-27T03:20:25.510Z,55.57
2018-01-27T03:22:53.786Z,80.50
2018-01-27T03:25:22.027Z,75.37
2018-01-27T03:27:51.096Z,87.70
2018-01-27T03:30:19.373Z,96.53
2018-01-27T03:32:47.620Z,73.10
2018-01-27T03:35:15.922Z,82.63
2018-01-27T03:37:44.154Z,76.37
2018-01-27T03:40:12.414Z,77.17
2018-01-27T03:42:41.435Z,83.93
2018-01-27T03:45:09.718Z,86.10
2018-01-27T03:47:38.708Z,86.27
2018-01-27T03:50:06.951Z,93.73
2018-01-27T03:52:35.246Z,80.47
2018-01-27T03:55:04.417Z,83.67
2018-01-27T03:57:32.619Z,78.40
2018-01-27T04:00:00.890Z,78.27
2018-01-27T04:02:29.898Z,73.93
2018-01-27T04:04:58.184Z,80.73
2018-01-27T04:07:26.875Z,74.97
2018-01-27T04:09:55.144Z,87.83
2018-01-27T04:12:24.193Z,93.47
2018-01-27T04:14:52.424Z,86.47
2018-01-27T04:17:20.681Z,70.63
2018-01-27T04:19:49.212Z,87.73
2018-01-27T04:22:18.984Z,83.10
2018-01-27T04:24:47.237Z,77.33
2018-01-27T04:27:16.261Z,78.03
2018-01-27T04:29:44.508Z,81.30
2018-01-27T04:32:13.514Z,74.00
2018-01-27T04:34:42.542Z,71.17
2018-01-27T04:37:10.792Z,65.63
2018-01-27T04:39:39.041Z,69.30
2018-01-27T04:42:07.292Z,77.73
2018-01-27T04:44:35.590Z,84.70
2018-01-27T04:47:03.847Z,72.50
2018-01-27T04:49:32.107Z,77.73
2018-01-27T04:52:00.357Z,81.37
2018-01-27T04:54:28.617Z,84.43
2018-01-27T04:56:56.869Z,79.77
2018-01-27T04:59:25.162Z,65.47
2018-01-27T05:01:53.412Z,76.00
2018-01-27T05:04:21.682Z,74.20
2018-01-27T05:06:49.926Z,66.70
2018-01-27T05:09:18.937Z,66.77
2018-01-27T05:11:47.203Z,74.10
2018-01-27T05:14:15.505Z,75.73
2018-01-27T05:16:43.742Z,74.87
2018-01-27T05:19:12.777Z,82.57
2018-01-27T05:21:41.034Z,83.30
2018-01-27T05:24:09.290Z,89.90
2018-01-27T05:26:38.296Z,73.43
2018-01-27T05:29:06.550Z,79.97
2018-01-27T05:31:35.573Z,73.93
2018-01-27T05:34:03.809Z,83.53
2018-01-27T05:36:32.064Z,71.67
2018-01-27T05:39:00.349Z,76.90
2018-01-27T05:41:30.274Z,72.80
2018-01-27T05:43:58.493Z,82.27
2018-01-27T05:46:26.767Z,66.10
2018-01-27T05:48:55.009Z,79.53
2018-01-27T05:51:23.256Z,83.10
2018-01-27T05:53:51.485Z,73.87
2018-01-27T05:56:20.517Z,71.83
2018-01-27T05:58:48.810Z,61.17
2018-01-27T06:01:17.050Z,73.33
2018-01-27T06:03:45.313Z,60.50
2018-01-27T06:06:14.319Z,73.33
2018-01-27T06:08:42.586Z,68.60
2018-01-27T06:11:11.629Z,55.70
2018-01-27T06:13:39.891Z,69.97
2018-01-27T06:16:08.153Z,67.60
2018-01-27T06:18:36.402Z,76.07
2018-01-27T06:21:04.683Z,75.47
2018-01-27T06:23:32.985Z,68.17
2018-01-27T06:26:01.310Z,68.20
2018-01-27T06:28:29.547Z,60.87
2018-01-27T06:30:57.808Z,80.63
2018-01-27T06:33:26.089Z,62.47
2018-01-27T06:35:54.339Z,61.63
2018-01-27T06:38:22.610Z,83.13
2018-01-27T06:40:51.646Z,72.70
2018-01-27T06:43:19.882Z,62.17
2018-01-27T06:45:48.140Z,60.93
2018-01-27T06:48:16.397Z,58.03
2018-01-27T06:50:44.658Z,71.17
2018-01-27T06:53:12.931Z,73.13
2018-01-27T06:55:41.931Z,57.60
2018-01-27T06:58:10.942Z,65.50
2018-01-27T07:00:39.210Z,68.47
2018-01-27T07:03:07.505Z,71.93
2018-01-27T07:05:35.767Z,69.30
2018-01-27T07:08:04.012Z,57.77
2018-01-27T07:10:33.059Z,71.43
2018-01-27T07:13:01.530Z,62.20
2018-01-27T07:15:29.821Z,76.17
2018-01-27T07:17:58.090Z,62.40
2018-01-27T07:20:26.343Z,87.00
2018-01-27T07:22:54.610Z,66.13
2018-01-27T07:25:22.889Z,65.47
2018-01-27T07:27:51.138Z,87.47
2018-01-27T07:30:20.214Z,82.70
2018-01-27T07:32:50.027Z,58.80
2018-01-27T07:35:18.268Z,75.80
2018-01-27T07:37:46.573Z,70.33
2018-01-27T07:40:14.959Z,73.30
2018-01-27T07:42:43.186Z,70.33
2018-01-27T07:45:11.464Z,74.27
2018-01-27T07:47:40.501Z,74.70
2018-01-27T07:50:08.791Z,64.60
2018-01-27T07:52:37.056Z,65.67
2018-01-27T07:55:05.336Z,63.00
2018-01-27T07:57:33.639Z,60.57
2018-01-27T08:00:01.894Z,65.60
2018-01-27T08:02:31.163Z,74.83
2018-01-27T08:04:59.404Z,79.40
2018-01-27T08:07:28.446Z,69.17
2018-01-27T08:09:56.688Z,59.70
2018-01-27T08:12:25.715Z,83.13
2018-01-27T08:14:53.992Z,84.33
2018-01-27T08:17:22.599Z,75.37
2018-01-27T08:19:50.824Z,71.90
2018-01-27T08:22:19.094Z,72.60
2018-01-27T08:24:48.116Z,63.07
2018-01-27T08:27:16.435Z,71.53
2018-01-27T08:29:44.654Z,59.80
2018-01-27T08:32:13.695Z,81.53
2018-01-27T08:34:42.470Z,81.63
2018-01-27T08:37:10.741Z,66.13
2018-01-27T08:39:39.447Z,67.53
2018-01-27T08:42:07.745Z,82.53
2018-01-27T08:44:35.987Z,74.37
2018-01-27T08:47:04.255Z,77.70
2018-01-27T08:49:32.505Z,98.87
2018-01-27T08:52:01.514Z,80.53
2018-01-27T08:54:30.016Z,86.53
2018-01-27T08:56:58.716Z,85.20
2018-01-27T08:59:26.952Z,71.57
2018-01-27T09:01:56.056Z,77.37
2018-01-27T09:04:24.350Z,85.23
2018-01-27T09:06:52.582Z,74.60
2018-01-27T09:09:20.836Z,72.77
2018-01-27T09:11:49.070Z,81.23
2018-01-27T09:14:17.345Z,70.03
2018-01-27T09:16:45.623Z,64.93
2018-01-27T09:19:13.896Z,72.93
2018-01-27T09:21:42.193Z,74.60
2018-01-27T09:24:10.983Z,68.07
2018-01-27T09:26:39.353Z,71.47
2018-01-27T09:29:07.602Z,74.53
2018-01-27T09:31:35.891Z,70.80
2018-01-27T09:34:04.178Z,77.07
2018-01-27T09:36:32.490Z,70.73
2018-01-27T09:39:00.742Z,77.67
2018-01-27T09:41:29.059Z,68.93
2018-01-27T09:43:57.307Z,77.33
2018-01-27T09:46:25.582Z,70.50
2018-01-27T09:48:54.015Z,64.83
2018-01-27T09:51:22.255Z,71.20
2018-01-27T09:53:50.610Z,71.87
2018-01-27T09:56:18.951Z,69.67
2018-01-27T09:58:48.014Z,69.97
2018-01-27T10:01:16.313Z,74.00
2018-01-27T10:03:44.558Z,84.13
2018-01-27T10:06:12.877Z,73.40
2018-01-27T10:08:42.113Z,82.97
2018-01-27T10:11:10.404Z,70.30
2018-01-27T10:13:38.738Z,91.57
2018-01-27T10:16:07.802Z,77.03
2018-01-27T10:18:36.065Z,85.90
2018-01-27T10:21:04.363Z,75.70
2018-01-27T10:23:32.641Z,87.37
2018-01-27T10:26:00.919Z,76.50
2018-01-27T10:28:29.187Z,78.83
2018-01-27T10:30:57.543Z,74.80
2018-01-27T10:33:25.837Z,69.83
2018-01-27T10:35:54.204Z,69.73
2018-01-27T10:38:22.484Z,72.53
2018-01-27T10:40:50.752Z,74.63
2018-01-27T10:43:19.043Z,76.07
2018-01-27T10:45:47.321Z,76.53
2018-01-27T10:48:15.585Z,93.43
2018-01-27T10:50:43.894Z,61.73
2018-01-27T10:53:12.277Z,72.67
2018-01-27T10:55:40.540Z,71.00
2018-01-27T10:58:08.819Z,54.07
2018-01-27T11:00:37.058Z,51.93
2018-01-27T11:03:05.337Z,45.93
2018-01-27T11:05:34.341Z,48.90
2018-01-27T11:08:02.609Z,55.70
2018-01-27T11:10:30.922Z,58.13
2018-01-27T11:12:59.178Z,47.37
2018-01-27T11:15:27.453Z,51.40
2018-01-27T11:17:55.707Z,55.13
2018-01-27T11:20:24.013Z,46.57
2018-01-27T11:22:52.985Z,45.20
2018-01-27T11:25:21.998Z,73.33
2018-01-27T11:27:50.272Z,63.13
2018-01-27T11:30:18.539Z,51.87
2018-01-27T11:32:47.668Z,52.23
2018-01-27T11:35:15.913Z,39.60
2018-01-27T11:37:44.219Z,51.53
2018-01-27T11:40:12.525Z,52.43
2018-01-27T11:42:41.297Z,49.27
2018-01-27T11:45:09.555Z,40.37
2018-01-27T11:47:37.825Z,37.80
2018-01-27T11:50:06.080Z,46.50
2018-01-27T11:52:34.338Z,55.43
2018-01-27T11:55:02.607Z,47.70
2018-01-27T11:57:30.873Z,45.27
2018-01-27T11:59:59.159Z,44.60
2018-01-27T12:02:27.460Z,36.93
2018-01-27T12:04:55.744Z,46.23
2018-01-27T12:07:24.777Z,34.30
2018-01-27T12:09:53.028Z,32.60
2018-01-27T12:12:21.281Z,40.40
2018-01-27T12:14:50.323Z,35.63
2018-01-27T12:17:18.657Z,41.20
2018-01-27T12:19:46.968Z,34.97
2018-01-27T12:22:15.241Z,35.70
2018-01-27T12:24:44.301Z,37.60
2018-01-27T12:27:12.568Z,37.13
2018-01-27T12:29:40.850Z,31.93
2018-01-27T12:32:09.121Z,38.10
2018-01-27T12:34:37.382Z,38.93
2018-01-27T12:37:05.667Z,35.43
2018-01-27T12:39:33.909Z,30.00
2018-01-27T12:42:02.207Z,35.23
2018-01-27T12:44:30.477Z,35.73
2018-01-27T12:46:58.741Z,35.10
2018-01-27T12:49:27.004Z,39.87
2018-01-27T12:51:56.020Z,42.93
2018-01-27T12:54:24.319Z,36.23
2018-01-27T12:56:52.587Z,33.30
2018-01-27T12:59:20.872Z,36.60
2018-01-27T13:01:49.142Z,42.00
2018-01-27T13:04:17.367Z,36.20
2018-01-27T13:06:46.453Z,37.43
2018-01-27T13:09:14.704Z,44.80
2018-01-27T13:11:42.963Z,36.80
2018-01-27T13:14:11.200Z,46.60
2018-01-27T13:16:40.258Z,41.73
2018-01-27T13:19:08.899Z,41.07
2018-01-27T13:21:37.149Z,31.43
2018-01-27T13:24:05.407Z,44.63
2018-01-27T13:26:34.462Z,41.30
2018-01-27T13:29:02.899Z,38.00
2018-01-27T13:31:31.157Z,41.10
2018-01-27T13:33:59.405Z,50.10
2018-01-27T13:36:27.714Z,46.80
2018-01-27T13:38:56.025Z,49.83
2018-01-27T13:41:24.284Z,41.57
2018-01-27T13:43:52.915Z,34.57
2018-01-27T13:46:21.199Z,39.20
2018-01-27T13:48:49.474Z,55.57
2018-01-27T13:51:17.838Z,41.00
2018-01-27T13:53:46.394Z,39.57
2018-01-27T13:56:16.157Z,47.03
2018-01-27T13:58:44.415Z,49.43
2018-01-27T14:01:13.468Z,39.30
2018-01-27T14:03:42.499Z,41.93
2018-01-27T14:06:11.593Z,39.00
2018-01-27T14:08:40.660Z,42.73
2018-01-27T14:11:08.957Z,46.77
2018-01-27T14:13:38.025Z,42.70
2018-01-27T14:16:06.432Z,46.70
2018-01-27T14:18:34.680Z,38.83
2018-01-27T14:21:03.035Z,45.33
2018-01-27T14:23:31.487Z,53.10
2018-01-27T14:25:59.776Z,46.73
2018-01-27T14:28:28.027Z,33.43
2018-01-27T14:30:57.115Z,55.00
2018-01-27T14:33:25.431Z,42.57
2018-01-27T14:35:53.723Z,32.07
2018-01-27T14:38:22.067Z,32.53
2018-01-27T14:40:50.334Z,35.80
2018-01-27T14:43:18.625Z,30.87
2018-01-27T14:45:47.706Z,28.93
2018-01-27T14:48:16.751Z,38.30
2018-01-27T14:50:45.026Z,35.90
2018-01-27T14:53:13.308Z,33.53
2018-01-27T14:55:41.579Z,33.63
2018-01-27T14:58:09.879Z,43.43
2018-01-27T15:00:38.113Z,43.50
2018-01-27T15:03:06.427Z,37.07
2018-01-27T15:05:34.676Z,35.80
2018-01-27T15:08:02.940Z,39.50
2018-01-27T15:10:31.977Z,47.10
2018-01-27T15:13:00.233Z,38.50
2018-01-27T15:15:28.482Z,32.37
2018-01-27T15:17:57.510Z,47.63
2018-01-27T15:20:25.832Z,36.00
2018-01-27T15:22:54.276Z,44.43
2018-01-27T15:25:22.573Z,40.27
2018-01-27T15:27:50.822Z,47.83
2018-01-27T15:30:19.097Z,35.60
2018-01-27T15:32:47.363Z,45.70
2018-01-27T15:35:15.632Z,41.87
2018-01-27T15:37:43.910Z,45.20
2018-01-27T15:40:12.984Z,36.00
2018-01-27T15:42:41.217Z,34.97
2018-01-27T15:45:09.505Z,36.47
2018-01-27T15:47:38.776Z,40.13
2018-01-27T15:50:07.102Z,41.80
2018-01-27T15:52:35.348Z,43.90
2018-01-27T15:55:03.690Z,49.87
2018-01-27T15:57:32.695Z,34.30
2018-01-27T16:00:00.967Z,42.60
2018-01-27T16:02:30.871Z,38.10
2018-01-27T16:04:59.105Z,36.00
2018-01-27T16:07:27.397Z,32.80
2018-01-27T16:09:55.654Z,35.83
2018-01-27T16:12:24.087Z,39.73
2018-01-27T16:14:52.456Z,32.70
2018-01-27T16:17:21.517Z,44.40
2018-01-27T16:19:49.921Z,39.43
2018-01-27T16:22:18.175Z,42.87
2018-01-27T16:24:46.445Z,37.53
2018-01-27T16:27:14.739Z,40.20
2018-01-27T16:29:42.981Z,46.50
2018-01-27T16:32:11.291Z,38.40
2018-01-27T16:34:39.536Z,39.73
2018-01-27T16:37:08.681Z,35.00
2018-01-27T16:39:37.822Z,34.50
2018-01-27T16:42:06.190Z,42.43
2018-01-27T16:44:35.313Z,60.07
2018-01-27T16:47:03.627Z,45.80
2018-01-27T16:49:32.682Z,33.80
2018-01-27T16:52:00.952Z,40.30
2018-01-27T16:54:29.257Z,39.93
2018-01-27T16:56:57.491Z,42.70
2018-01-27T16:59:27.225Z,33.63
2018-01-27T17:01:56.252Z,38.00
2018-01-27T17:04:24.514Z,35.27
2018-01-27T17:06:52.816Z,36.07
2018-01-27T17:09:21.718Z,33.57
2018-01-27T17:11:49.974Z,34.37
2018-01-27T17:14:18.192Z,31.23
2018-01-27T17:16:47.230Z,38.87
2018-01-27T17:19:15.490Z,30.90
2018-01-27T17:21:43.789Z,39.97
2018-01-27T17:24:12.074Z,27.13
2018-01-27T17:26:40.366Z,45.53
2018-01-27T17:29:08.664Z,32.13
2018-01-27T17:31:36.971Z,33.40
2018-01-27T17:34:05.994Z,29.37
2018-01-27T17:36:34.390Z,49.07
2018-01-27T17:39:02.755Z,27.83
2018-01-27T17:41:31.062Z,33.10
2018-01-27T17:44:00.890Z,33.10
2018-01-27T17:46:29.181Z,26.10
2018-01-27T17:48:58.237Z,36.53
2018-01-27T17:51:27.374Z,20.57
2018-01-27T17:53:55.648Z,26.83
2018-01-27T17:56:26.301Z,25.43
2018-01-27T17:58:55.311Z,25.07
2018-01-27T18:01:23.619Z,28.73
2018-01-27T18:03:52.345Z,27.43
2018-01-27T18:06:21.449Z,22.37
2018-01-27T18:08:49.697Z,19.53
2018-01-27T18:11:18.856Z,25.77
2018-01-27T18:13:47.133Z,36.23
2018-01-27T18:16:15.431Z,23.27
2018-01-27T18:18:43.899Z,28.10
2018-01-27T18:21:12.313Z,19.23
2018-01-27T18:23:41.437Z,25.17
2018-01-27T18:26:10.563Z,30.53
2018-01-27T18:28:38.994Z,20.80
2018-01-27T18:31:07.365Z,22.40
2018-01-27T18:33:35.683Z,23.33
2018-01-27T18:36:04.750Z,16.67
2018-01-27T18:38:34.166Z,25.20
2018-01-27T18:41:02.642Z,21.90
2018-01-27T18:43:31.723Z,23.40
2018-01-27T18:46:00.341Z,25.10
2018-01-27T18:48:30.005Z,28.60
2018-01-27T18:50:58.273Z,22.50
2018-01-27T18:53:27.241Z,19.83
2018-01-27T18:55:55.497Z,20.77
2018-01-27T18:58:23.909Z,26.80
2018-01-27T19:00:52.203Z,26.93
2018-01-27T19:03:20.598Z,24.50
2018-01-27T19:05:48.940Z,30.13
2018-01-27T19:08:17.193Z,34.23
2018-01-27T19:10:45.743Z,21.23
2018-01-27T19:13:13.989Z,27.20
2018-01-27T19:15:42.224Z,45.83
2018-01-27T19:18:11.269Z,27.50
2018-01-27T19:20:39.588Z,30.60
2018-01-27T19:23:07.908Z,29.47
2018-01-27T19:25:36.216Z,24.13
2018-01-27T19:28:04.491Z,17.03
2018-01-27T19:30:32.747Z,25.63
2018-01-27T19:33:01.119Z,17.53
2018-01-27T19:35:29.393Z,29.17
2018-01-27T19:37:57.690Z,19.63
2018-01-27T19:40:25.985Z,15.53
2018-01-27T19:42:54.235Z,19.50
2018-01-27T19:45:22.520Z,21.67
2018-01-27T19:47:50.819Z,19.53
2018-01-27T19:50:19.093Z,16.50
2018-01-27T19:52:48.205Z,21.33
2018-01-27T19:55:18.187Z,18.93
2018-01-27T19:57:46.447Z,11.73
2018-01-27T20:00:14.692Z,17.13
2018-01-27T20:02:43.016Z,13.43
2018-01-27T20:05:11.342Z,19.87
2018-01-27T20:07:39.651Z,25.90
2018-01-27T20:10:08.045Z,12.27
2018-01-27T20:12:36.367Z,11.20
2018-01-27T20:15:04.764Z,20.87
2018-01-27T20:17:33.084Z,14.27
2018-01-27T20:20:01.345Z,17.97
2018-01-27T20:22:29.819Z,13.60
2018-01-27T20:24:58.847Z,17.63
2018-01-27T20:27:27.615Z,18.67
2018-01-27T20:29:56.644Z,14.33
2018-01-27T20:32:24.966Z,18.40
2018-01-27T20:34:54.065Z,12.37
2018-01-27T20:37:22.432Z,16.47
2018-01-27T20:39:52.290Z,6.80
2018-01-27T20:42:21.169Z,12.50
2018-01-27T20:44:50.282Z,14.53
2018-01-27T20:47:18.535Z,10.77
2018-01-27T20:49:46.843Z,9.97
2018-01-27T20:52:15.181Z,14.57
2018-01-27T20:54:44.248Z,12.93
2018-01-27T20:57:12.546Z,10.20
2018-01-27T20:59:41.144Z,12.80
2018-01-27T21:02:10.165Z,11.43
2018-01-27T21:04:38.438Z,15.77
2018-01-27T21:07:06.735Z,15.80
2018-01-27T21:09:35.420Z,25.10
2018-01-27T21:12:03.736Z,10.37
2018-01-27T21:14:32.010Z,16.53
2018-01-27T21:17:00.331Z,10.87
2018-01-27T21:19:29.384Z,15.17
2018-01-27T21:21:57.619Z,12.63
2018-01-27T21:24:25.913Z,16.70
2018-01-27T21:26:54.208Z,9.17
2018-01-27T21:29:22.547Z,16.90
2018-01-27T21:31:50.892Z,14.70
2018-01-27T21:34:20.012Z,15.50
2018-01-27T21:36:48.223Z,13.93
2018-01-27T21:39:16.645Z,12.23
2018-01-27T21:41:44.898Z,11.67
2018-01-27T21:44:13.281Z,9.70
2018-01-27T21:46:42.331Z,14.60
2018-01-27T21:49:10.628Z,13.30
2018-01-27T21:51:38.957Z,17.00
2018-01-27T21:54:07.186Z,21.20
2018-01-27T21:56:35.626Z,19.03
2018-01-27T21:59:05.574Z,12.40
2018-01-27T22:01:33.847Z,15.70
2018-01-27T22:04:02.102Z,12.93
2018-01-27T22:06:30.401Z,20.80
2018-01-27T22:08:58.664Z,19.97
2018-01-27T22:11:27.700Z,12.60
2018-01-27T22:13:55.992Z,17.93
2018-01-27T22:16:24.254Z,12.23
2018-01-27T22:18:52.551Z,11.60
2018-01-27T22:21:20.857Z,21.50
2018-01-27T22:23:49.867Z,10.60
2018-01-27T22:26:18.152Z,11.50
2018-01-27T22:28:46.407Z,14.80
2018-01-27T22:31:14.682Z,11.50
2018-01-27T22:33:43.698Z,15.93
2018-01-27T22:36:12.905Z,13.87
2018-01-27T22:38:41.305Z,13.43
2018-01-27T22:41:09.630Z,14.67
2018-01-27T22:43:37.889Z,12.10
2018-01-27T22:46:06.143Z,16.67
2018-01-27T22:48:34.980Z,11.67
2018-01-27T22:51:03.213Z,10.70
2018-01-27T22:53:31.450Z,8.93
2018-01-27T22:55:59.752Z,10.87
2018-01-27T22:58:27.996Z,12.37
2018-01-27T23:01:02.605Z,10.20
2018-01-27T23:03:30.825Z,9.40
2018-01-27T23:05:59.119Z,12.53
2018-01-27T23:08:27.394Z,10.37
2018-01-27T23:10:55.680Z,12.23
2018-01-27T23:13:23.933Z,10.47
2018-01-27T23:15:53.772Z,8.90
2018-01-27T23:18:22.070Z,14.77
2018-01-27T23:20:51.836Z,11.30
2018-01-27T23:23:20.097Z,14.47
2018-01-27T23:25:49.163Z,12.90
2018-01-27T23:28:17.463Z,18.90
2018-01-27T23:30:45.687Z,13.30
2018-01-27T23:33:13.948Z,18.23
2018-01-27T23:35:42.245Z,17.77
2018-01-27T23:38:10.555Z,14.57
2018-01-27T23:40:38.996Z,13.03
2018-01-27T23:43:07.553Z,14.63
2018-01-27T23:45:35.821Z,7.53
2018-01-27T23:48:04.825Z,18.27
2018-01-27T23:50:33.109Z,12.80
2018-01-27T23:53:01.336Z,14.20
2018-01-27T23:55:31.113Z,16.10
2018-01-27T23:57:59.371Z,14.53
